Capitol Logistics 336


KMIA
Miami International Airport
Miami, Florida, US
KAFW
Fort Worth Alliance Airport
Fort Worth, Texas, US

Activity Log

Date Flight Route Aircraft Duration
04/27/2020 CPX336 WINCO2 WINCO SRQ Y280 REMIS Q100 REDFN Q105 HRV J58 AEX DODJE5 B763 3h 06m
06/17/2019 CPX336 KMIA WINCO2 WINCO J73 LBV SRQ Q100 REDFN Q105 HRV J58 AEX DODJE5 KAFW B763 2h 37m

Route Details

Aircraft Information
Primary: Boeing 767-300BDSF
Backup: Not Available
Route Data
Distance: 989nm
Sched. Duration: 3h 29m
Avg. Duration: 2h 72m (-58m)
Times Flown: 2
Recm'd Route: WINCO2 WINCO CHRRI DOLIE Y280 REDFN Q105 HRV J58 AEX PNUTS REEKO3
Planned Altitude: 34,000ft
Origin Wx: KMIA 251853Z 14010G17KT 10SM SCT028 BKN250 26/19 A3002 RMK AO2 SLP167 T02560189 $
Dest. Wx: KAFW 251853Z 25013KT 10SM CLR 18/04 A2969 RMK AO2 PK WND 28032/1831 SLP049 T01780044
Notes:

Financial History
Total Freight: 164,973lbs
Average Load: 82,487lbs/flt
Fuel Used: 56,356lbs
Avg. Fuel Used: 28,178lbs/flt
Fuel Expense: $69,318
Avg. Fuel Expense: $34,659
Avg. Fuel Cost: $1.23/lbs
Total Gross Income: $223,793
Pilot Pay: $488
Total Expenses: $24,274
Total Revenue: $128,804
Average Revenue: $111,896.64